sensor_id;sensor_type;location;lat;lon;timestamp;pressure;altitude;pressure_sealevel;temperature
67509;BMP280;54354;44.724;11.284;2022-07-06T00:01:31;101514.31;;;31.90
67509;BMP280;54354;44.724;11.284;2022-07-06T00:03:57;101526.03;;;31.90
67509;BMP280;54354;44.724;11.284;2022-07-06T00:06:23;101526.75;;;31.91
67509;BMP280;54354;44.724;11.284;2022-07-06T00:08:48;101540.63;;;31.93
67509;BMP280;54354;44.724;11.284;2022-07-06T00:11:14;101553.59;;;31.92
67509;BMP280;54354;44.724;11.284;2022-07-06T00:13:40;101554.69;;;31.89
67509;BMP280;54354;44.724;11.284;2022-07-06T00:16:06;101559.06;;;31.85
67509;BMP280;54354;44.724;11.284;2022-07-06T00:18:31;101565.81;;;31.84
67509;BMP280;54354;44.724;11.284;2022-07-06T00:20:57;101582.78;;;31.82
67509;BMP280;54354;44.724;11.284;2022-07-06T00:23:22;101585.53;;;31.82
67509;BMP280;54354;44.724;11.284;2022-07-06T00:25:48;101580.41;;;31.79
67509;BMP280;54354;44.724;11.284;2022-07-06T00:28:14;101580.56;;;31.73
67509;BMP280;54354;44.724;11.284;2022-07-06T00:30:40;101579.06;;;31.65
67509;BMP280;54354;44.724;11.284;2022-07-06T00:33:06;101575.03;;;31.58
67509;BMP280;54354;44.724;11.284;2022-07-06T00:35:33;101576.31;;;31.57
67509;BMP280;54354;44.724;11.284;2022-07-06T00:37:59;101578.13;;;31.54
67509;BMP280;54354;44.724;11.284;2022-07-06T00:40:25;101570.97;;;31.51
67509;BMP280;54354;44.724;11.284;2022-07-06T00:42:51;101565.84;;;31.48
67509;BMP280;54354;44.724;11.284;2022-07-06T00:45:17;101561.47;;;31.45
67509;BMP280;54354;44.724;11.284;2022-07-06T00:47:43;101556.00;;;31.45
67509;BMP280;54354;44.724;11.284;2022-07-06T00:50:11;101554.13;;;31.40
67509;BMP280;54354;44.724;11.284;2022-07-06T00:52:45;101560.69;;;31.37
67509;BMP280;54354;44.724;11.284;2022-07-06T00:55:12;101559.81;;;31.42
67509;BMP280;54354;44.724;11.284;2022-07-06T00:57:38;101556.88;;;31.40
67509;BMP280;54354;44.724;11.284;2022-07-06T01:00:07;101562.28;;;31.32
67509;BMP280;54354;44.724;11.284;2022-07-06T01:02:34;101549.38;;;31.33
67509;BMP280;54354;44.724;11.284;2022-07-06T01:05:02;101554.28;;;31.34
67509;BMP280;54354;44.724;11.284;2022-07-06T01:07:28;101566.66;;;31.27
67509;BMP280;54354;44.724;11.284;2022-07-06T01:09:54;101561.34;;;31.22
67509;BMP280;54354;44.724;11.284;2022-07-06T01:12:20;101551.28;;;31.17
67509;BMP280;54354;44.724;11.284;2022-07-06T01:14:46;101551.81;;;31.15
67509;BMP280;54354;44.724;11.284;2022-07-06T01:17:13;101551.09;;;31.15
67509;BMP280;54354;44.724;11.284;2022-07-06T01:19:39;101552.56;;;31.16
67509;BMP280;54354;44.724;11.284;2022-07-06T01:22:05;101560.03;;;31.15
67509;BMP280;54354;44.724;11.284;2022-07-06T01:24:31;101551.97;;;31.10
67509;BMP280;54354;44.724;11.284;2022-07-06T01:26:57;101538.81;;;31.08
67509;BMP280;54354;44.724;11.284;2022-07-06T01:29:23;101539.91;;;31.05
67509;BMP280;54354;44.724;11.284;2022-07-06T01:31:50;101537.50;;;31.02
67509;BMP280;54354;44.724;11.284;2022-07-06T01:34:17;101539.13;;;30.97
67509;BMP280;54354;44.724;11.284;2022-07-06T01:36:43;101554.25;;;30.98
67509;BMP280;54354;44.724;11.284;2022-07-06T01:39:09;101547.13;;;30.95
67509;BMP280;54354;44.724;11.284;2022-07-06T01:41:36;101544.31;;;30.87
67509;BMP280;54354;44.724;11.284;2022-07-06T01:44:03;101547.19;;;30.82
67509;BMP280;54354;44.724;11.284;2022-07-06T01:46:29;101555.41;;;30.82
67509;BMP280;54354;44.724;11.284;2022-07-06T01:48:54;101549.06;;;30.87
67509;BMP280;54354;44.724;11.284;2022-07-06T01:51:20;101546.88;;;30.85
67509;BMP280;54354;44.724;11.284;2022-07-06T01:53:48;101533.84;;;30.78
67509;BMP280;54354;44.724;11.284;2022-07-06T01:56:17;101541.22;;;30.83
67509;BMP280;54354;44.724;11.284;2022-07-06T01:58:46;101547.19;;;30.82
67509;BMP280;54354;44.724;11.284;2022-07-06T02:01:15;101542.06;;;30.78
67509;BMP280;54354;44.724;11.284;2022-07-06T02:03:42;101538.50;;;30.83
67509;BMP280;54354;44.724;11.284;2022-07-06T02:06:08;101545.03;;;30.80
67509;BMP280;54354;44.724;11.284;2022-07-06T02:08:35;101538.63;;;30.78
67509;BMP280;54354;44.724;11.284;2022-07-06T02:11:05;101544.22;;;30.72
67509;BMP280;54354;44.724;11.284;2022-07-06T02:13:33;101549.16;;;30.74
67509;BMP280;54354;44.724;11.284;2022-07-06T02:16:00;101542.75;;;30.71
67509;BMP280;54354;44.724;11.284;2022-07-06T02:18:26;101554.97;;;30.70
67509;BMP280;54354;44.724;11.284;2022-07-06T02:20:52;101550.75;;;30.69
67509;BMP280;54354;44.724;11.284;2022-07-06T02:23:17;101556.00;;;30.67
67509;BMP280;54354;44.724;11.284;2022-07-06T02:25:44;101556.00;;;30.67
67509;BMP280;54354;44.724;11.284;2022-07-06T02:28:09;101560.97;;;30.69
67509;BMP280;54354;44.724;11.284;2022-07-06T02:30:35;101555.31;;;30.67
67509;BMP280;54354;44.724;11.284;2022-07-06T02:33:01;101565.72;;;30.68
67509;BMP280;54354;44.724;11.284;2022-07-06T02:35:27;101571.81;;;30.61
67509;BMP280;54354;44.724;11.284;2022-07-06T02:37:53;101578.38;;;30.58
67509;BMP280;54354;44.724;11.284;2022-07-06T02:40:18;101585.63;;;30.55
67509;BMP280;54354;44.724;11.284;2022-07-06T02:42:45;101585.97;;;30.52
67509;BMP280;54354;44.724;11.284;2022-07-06T02:45:11;101592.91;;;30.53
67509;BMP280;54354;44.724;11.284;2022-07-06T02:47:36;101586.91;;;30.54
67509;BMP280;54354;44.724;11.284;2022-07-06T02:50:04;101594.38;;;30.54
67509;BMP280;54354;44.724;11.284;2022-07-06T02:52:30;101609.31;;;30.53
67509;BMP280;54354;44.724;11.284;2022-07-06T02:54:57;101616.91;;;30.47
67509;BMP280;54354;44.724;11.284;2022-07-06T02:57:23;101630.38;;;30.45
67509;BMP280;54354;44.724;11.284;2022-07-06T02:59:49;101626.91;;;30.44
67509;BMP280;54354;44.724;11.284;2022-07-06T03:02:18;101633.31;;;30.47
67509;BMP280;54354;44.724;11.284;2022-07-06T03:04:44;101629.44;;;30.42
67509;BMP280;54354;44.724;11.284;2022-07-06T03:07:10;101640.16;;;30.40
67509;BMP280;54354;44.724;11.284;2022-07-06T03:09:35;101643.03;;;30.35
67509;BMP280;54354;44.724;11.284;2022-07-06T03:12:02;101635.69;;;30.30
67509;BMP280;54354;44.724;11.284;2022-07-06T03:14:30;101645.66;;;30.27
67509;BMP280;54354;44.724;11.284;2022-07-06T03:16:55;101645.44;;;30.25
67509;BMP280;54354;44.724;11.284;2022-07-06T03:19:21;101637.38;;;30.19
67509;BMP280;54354;44.724;11.284;2022-07-06T03:21:47;101639.69;;;30.15
67509;BMP280;54354;44.724;11.284;2022-07-06T03:24:13;101637.06;;;30.10
67509;BMP280;54354;44.724;11.284;2022-07-06T03:26:39;101637.63;;;30.08
67509;BMP280;54354;44.724;11.284;2022-07-06T03:29:04;101640.16;;;30.06
67509;BMP280;54354;44.724;11.284;2022-07-06T03:31:30;101634.44;;;30.04
67509;BMP280;54354;44.724;11.284;2022-07-06T03:33:56;101636.06;;;30.00
67509;BMP280;54354;44.724;11.284;2022-07-06T03:36:21;101632.38;;;29.97
67509;BMP280;54354;44.724;11.284;2022-07-06T03:38:47;101634.16;;;29.94
67509;BMP280;54354;44.724;11.284;2022-07-06T03:41:13;101637.22;;;29.91
67509;BMP280;54354;44.724;11.284;2022-07-06T03:43:38;101647.41;;;29.90
67509;BMP280;54354;44.724;11.284;2022-07-06T03:46:04;101659.06;;;29.91
67509;BMP280;54354;44.724;11.284;2022-07-06T03:48:30;101655.59;;;29.90
67509;BMP280;54354;44.724;11.284;2022-07-06T03:50:56;101662.53;;;29.91
67509;BMP280;54354;44.724;11.284;2022-07-06T03:53:22;101661.78;;;29.91
67509;BMP280;54354;44.724;11.284;2022-07-06T03:55:47;101661.16;;;29.85
67509;BMP280;54354;44.724;11.284;2022-07-06T03:58:34;101667.69;;;29.82
67509;BMP280;54354;44.724;11.284;2022-07-06T04:01:00;101672.94;;;29.80
67509;BMP280;54354;44.724;11.284;2022-07-06T04:03:25;101663.16;;;29.71
67509;BMP280;54354;44.724;11.284;2022-07-06T04:05:52;101669.75;;;29.62
67509;BMP280;54354;44.724;11.284;2022-07-06T04:08:18;101684.97;;;29.58
67509;BMP280;54354;44.724;11.284;2022-07-06T04:10:50;101683.81;;;29.53
67509;BMP280;54354;44.724;11.284;2022-07-06T04:13:16;101680.34;;;29.53
67509;BMP280;54354;44.724;11.284;2022-07-06T04:15:41;101681.31;;;29.55
67509;BMP280;54354;44.724;11.284;2022-07-06T04:18:07;101683.09;;;29.53
67509;BMP280;54354;44.724;11.284;2022-07-06T04:20:39;101684.34;;;29.52
67509;BMP280;54354;44.724;11.284;2022-07-06T04:23:07;101678.47;;;29.48
67509;BMP280;54354;44.724;11.284;2022-07-06T04:25:34;101676.25;;;29.46
67509;BMP280;54354;44.724;11.284;2022-07-06T04:28:01;101680.53;;;29.42
67509;BMP280;54354;44.724;11.284;2022-07-06T04:30:28;101679.06;;;29.41
67509;BMP280;54354;44.724;11.284;2022-07-06T04:32:54;101681.06;;;29.40
67509;BMP280;54354;44.724;11.284;2022-07-06T04:35:22;101685.56;;;29.38
67509;BMP280;54354;44.724;11.284;2022-07-06T04:37:50;101676.66;;;29.37
67509;BMP280;54354;44.724;11.284;2022-07-06T04:40:18;101671.72;;;29.36
67509;BMP280;54354;44.724;11.284;2022-07-06T04:42:45;101680.94;;;29.33
67509;BMP280;54354;44.724;11.284;2022-07-06T04:45:10;101681.88;;;29.35
67509;BMP280;54354;44.724;11.284;2022-07-06T04:47:36;101683.06;;;29.40
67509;BMP280;54354;44.724;11.284;2022-07-06T04:50:03;101676.03;;;29.44
67509;BMP280;54354;44.724;11.284;2022-07-06T04:52:29;101686.25;;;29.57
67509;BMP280;54354;44.724;11.284;2022-07-06T04:54:55;101690.78;;;29.68
67509;BMP280;54354;44.724;11.284;2022-07-06T04:57:21;101703.16;;;29.69
67509;BMP280;54354;44.724;11.284;2022-07-06T04:59:47;101702.63;;;29.70
67509;BMP280;54354;44.724;11.284;2022-07-06T05:02:12;101694.66;;;29.85
67509;BMP280;54354;44.724;11.284;2022-07-06T05:04:38;101697.09;;;30.02
67509;BMP280;54354;44.724;11.284;2022-07-06T05:07:04;101689.47;;;30.21
67509;BMP280;54354;44.724;11.284;2022-07-06T05:09:30;101705.63;;;30.46
67509;BMP280;54354;44.724;11.284;2022-07-06T05:11:56;101715.53;;;30.70
67509;BMP280;54354;44.724;11.284;2022-07-06T05:14:22;101704.50;;;30.96
67509;BMP280;54354;44.724;11.284;2022-07-06T05:16:48;101704.47;;;31.30
67509;BMP280;54354;44.724;11.284;2022-07-06T05:19:16;101694.44;;;31.61
67509;BMP280;54354;44.724;11.284;2022-07-06T05:21:43;101697.47;;;31.86
67509;BMP280;54354;44.724;11.284;2022-07-06T05:24:09;101697.78;;;32.11
67509;BMP280;54354;44.724;11.284;2022-07-06T05:26:34;101702.94;;;32.22
67509;BMP280;54354;44.724;11.284;2022-07-06T05:29:00;101710.97;;;32.20
67509;BMP280;54354;44.724;11.284;2022-07-06T05:31:26;101712.22;;;32.11
67509;BMP280;54354;44.724;11.284;2022-07-06T05:33:52;101724.06;;;31.99
67509;BMP280;54354;44.724;11.284;2022-07-06T05:36:18;101725.78;;;31.81
67509;BMP280;54354;44.724;11.284;2022-07-06T05:38:44;101716.00;;;31.65
67509;BMP280;54354;44.724;11.284;2022-07-06T05:41:09;101723.44;;;31.56
67509;BMP280;54354;44.724;11.284;2022-07-06T05:43:36;101728.66;;;31.47
67509;BMP280;54354;44.724;11.284;2022-07-06T05:46:03;101721.84;;;31.40
67509;BMP280;54354;44.724;11.284;2022-07-06T05:48:30;101730.41;;;31.37
67509;BMP280;54354;44.724;11.284;2022-07-06T05:51:15;101730.94;;;31.35
67509;BMP280;54354;44.724;11.284;2022-07-06T05:53:42;101741.28;;;31.29
67509;BMP280;54354;44.724;11.284;2022-07-06T05:56:07;101747.69;;;31.32
67509;BMP280;54354;44.724;11.284;2022-07-06T05:58:35;101738.75;;;31.31
67509;BMP280;54354;44.724;11.284;2022-07-06T06:01:01;101750.44;;;31.32
67509;BMP280;54354;44.724;11.284;2022-07-06T06:03:27;101760.78;;;31.25
67509;BMP280;54354;44.724;11.284;2022-07-06T06:05:52;101767.53;;;31.24
67509;BMP280;54354;44.724;11.284;2022-07-06T06:08:19;101769.34;;;31.22
67509;BMP280;54354;44.724;11.284;2022-07-06T06:10:46;101776.81;;;31.21
67509;BMP280;54354;44.724;11.284;2022-07-06T06:13:14;101787.94;;;31.23
67509;BMP280;54354;44.724;11.284;2022-07-06T06:15:40;101786.50;;;31.22
67509;BMP280;54354;44.724;11.284;2022-07-06T06:18:06;101782.66;;;31.25
67509;BMP280;54354;44.724;11.284;2022-07-06T06:20:32;101778.22;;;31.36
67509;BMP280;54354;44.724;11.284;2022-07-06T06:22:58;101778.69;;;31.47
67509;BMP280;54354;44.724;11.284;2022-07-06T06:27:54;101783.59;;;31.70
67509;BMP280;54354;44.724;11.284;2022-07-06T06:30:20;101786.53;;;31.72
67509;BMP280;54354;44.724;11.284;2022-07-06T06:32:45;101784.44;;;31.65
67509;BMP280;54354;44.724;11.284;2022-07-06T06:35:11;101788.81;;;31.60
67509;BMP280;54354;44.724;11.284;2022-07-06T06:37:37;101789.16;;;31.56
67509;BMP280;54354;44.724;11.284;2022-07-06T06:40:04;101782.00;;;31.53
67509;BMP280;54354;44.724;11.284;2022-07-06T06:42:31;101786.97;;;31.55
67509;BMP280;54354;44.724;11.284;2022-07-06T06:44:59;101796.31;;;31.59
67509;BMP280;54354;44.724;11.284;2022-07-06T06:47:24;101794.16;;;31.66
67509;BMP280;54354;44.724;11.284;2022-07-06T06:49:50;101790.53;;;31.71
67509;BMP280;54354;44.724;11.284;2022-07-06T06:52:16;101790.72;;;31.73
67509;BMP280;54354;44.724;11.284;2022-07-06T06:54:42;101796.22;;;31.73
67509;BMP280;54354;44.724;11.284;2022-07-06T06:57:07;101779.28;;;31.82
67509;BMP280;54354;44.724;11.284;2022-07-06T06:59:33;101784.34;;;31.99
67509;BMP280;54354;44.724;11.284;2022-07-06T07:01:58;101784.81;;;32.18
67509;BMP280;54354;44.724;11.284;2022-07-06T07:04:24;101792.34;;;32.33
67509;BMP280;54354;44.724;11.284;2022-07-06T07:06:50;101787.28;;;32.44
67509;BMP280;54354;44.724;11.284;2022-07-06T07:09:15;101788.41;;;32.56
67509;BMP280;54354;44.724;11.284;2022-07-06T07:11:41;101793.78;;;32.70
67509;BMP280;54354;44.724;11.284;2022-07-06T07:36:08;101771.69;;;33.13
67509;BMP280;54354;44.724;11.284;2022-07-06T07:38:34;101767.47;;;33.12
67509;BMP280;54354;44.724;11.284;2022-07-06T07:40:59;101761.28;;;33.27
67509;BMP280;54354;44.724;11.284;2022-07-06T07:43:25;101760.34;;;33.40
67509;BMP280;54354;44.724;11.284;2022-07-06T07:45:50;101766.75;;;33.42
67509;BMP280;54354;44.724;11.284;2022-07-06T07:48:16;101768.03;;;33.41
67509;BMP280;54354;44.724;11.284;2022-07-06T07:50:42;101767.28;;;33.33
67509;BMP280;54354;44.724;11.284;2022-07-06T07:53:08;101771.69;;;33.36
67509;BMP280;54354;44.724;11.284;2022-07-06T07:55:33;101776.25;;;33.33
67509;BMP280;54354;44.724;11.284;2022-07-06T07:57:59;101767.84;;;33.39
67509;BMP280;54354;44.724;11.284;2022-07-06T08:00:24;101772.25;;;33.50
67509;BMP280;54354;44.724;11.284;2022-07-06T08:02:50;101775.34;;;33.54
67509;BMP280;54354;44.724;11.284;2022-07-06T08:05:16;101773.16;;;33.52
67509;BMP280;54354;44.724;11.284;2022-07-06T08:07:42;101771.66;;;33.59
67509;BMP280;54354;44.724;11.284;2022-07-06T08:10:08;101768.00;;;33.49
67509;BMP280;54354;44.724;11.284;2022-07-06T08:12:35;101775.00;;;33.35
67509;BMP280;54354;44.724;11.284;2022-07-06T08:15:00;101775.00;;;33.35
67509;BMP280;54354;44.724;11.284;2022-07-06T08:17:26;101772.03;;;33.40
67509;BMP280;54354;44.724;11.284;2022-07-06T08:19:51;101772.06;;;33.55
67509;BMP280;54354;44.724;11.284;2022-07-06T08:22:17;101764.31;;;33.69
67509;BMP280;54354;44.724;11.284;2022-07-06T08:24:42;101765.38;;;33.81
67509;BMP280;54354;44.724;11.284;2022-07-06T08:27:08;101763.53;;;33.91
67509;BMP280;54354;44.724;11.284;2022-07-06T08:29:33;101756.56;;;33.90
67509;BMP280;54354;44.724;11.284;2022-07-06T08:31:59;101767.97;;;33.72
67509;BMP280;54354;44.724;11.284;2022-07-06T08:34:24;101760.69;;;33.59
67509;BMP280;54354;44.724;11.284;2022-07-06T08:36:50;101761.75;;;33.63
67509;BMP280;54354;44.724;11.284;2022-07-06T08:39:16;101752.06;;;33.70
67509;BMP280;54354;44.724;11.284;2022-07-06T08:41:42;101761.75;;;33.71
67509;BMP280;54354;44.724;11.284;2022-07-06T08:44:16;101765.63;;;33.68
67509;BMP280;54354;44.724;11.284;2022-07-06T08:46:42;101757.75;;;33.49
67509;BMP280;54354;44.724;11.284;2022-07-06T08:49:12;101754.47;;;33.28
67509;BMP280;54354;44.724;11.284;2022-07-06T08:51:40;101749.91;;;33.30
67509;BMP280;54354;44.724;11.284;2022-07-06T08:54:05;101759.59;;;33.39
67509;BMP280;54354;44.724;11.284;2022-07-06T08:56:32;101749.53;;;33.42
67509;BMP280;54354;44.724;11.284;2022-07-06T08:58:58;101750.28;;;33.42
67509;BMP280;54354;44.724;11.284;2022-07-06T09:01:25;101758.13;;;33.46
67509;BMP280;54354;44.724;11.284;2022-07-06T09:03:51;101748.03;;;33.48
67509;BMP280;54354;44.724;11.284;2022-07-06T09:06:24;101753.03;;;33.42
67509;BMP280;54354;44.724;11.284;2022-07-06T09:08:55;101752.84;;;33.48
67509;BMP280;54354;44.724;11.284;2022-07-06T09:11:22;101753.34;;;33.54
67509;BMP280;54354;44.724;11.284;2022-07-06T09:13:48;101757.41;;;33.53
67509;BMP280;54354;44.724;11.284;2022-07-06T09:16:15;101750.44;;;33.37
67509;BMP280;54354;44.724;11.284;2022-07-06T09:18:44;101750.09;;;33.17
67509;BMP280;54354;44.724;11.284;2022-07-06T09:21:10;101760.53;;;33.19
67509;BMP280;54354;44.724;11.284;2022-07-06T09:23:36;101749.34;;;33.24
67509;BMP280;54354;44.724;11.284;2022-07-06T09:26:05;101749.72;;;33.28
67509;BMP280;54354;44.724;11.284;2022-07-06T09:28:45;101736.00;;;33.36
67509;BMP280;54354;44.724;11.284;2022-07-06T09:31:11;101741.47;;;33.44
67509;BMP280;54354;44.724;11.284;2022-07-06T09:33:37;101742.03;;;33.50
67509;BMP280;54354;44.724;11.284;2022-07-06T09:36:03;101733.41;;;33.53
67509;BMP280;54354;44.724;11.284;2022-07-06T09:38:31;101743.09;;;33.54
67509;BMP280;54354;44.724;11.284;2022-07-06T09:40:56;101751.91;;;33.53
67509;BMP280;54354;44.724;11.284;2022-07-06T09:43:23;101743.09;;;33.54
67509;BMP280;54354;44.724;11.284;2022-07-06T09:45:51;101732.47;;;33.58
67509;BMP280;54354;44.724;11.284;2022-07-06T09:48:18;101732.47;;;33.58
67509;BMP280;54354;44.724;11.284;2022-07-06T09:50:48;101732.84;;;33.62
67509;BMP280;54354;44.724;11.284;2022-07-06T09:53:16;101729.72;;;33.74
67509;BMP280;54354;44.724;11.284;2022-07-06T09:55:50;101724.91;;;33.74
67509;BMP280;54354;44.724;11.284;2022-07-06T09:58:17;101724.38;;;33.76
67509;BMP280;54354;44.724;11.284;2022-07-06T10:00:44;101727.34;;;33.70
67509;BMP280;54354;44.724;11.284;2022-07-06T10:03:10;101730.28;;;33.64
67509;BMP280;54354;44.724;11.284;2022-07-06T10:05:38;101717.81;;;33.56
67509;BMP280;54354;44.724;11.284;2022-07-06T10:08:05;101723.31;;;33.56
67509;BMP280;54354;44.724;11.284;2022-07-06T10:10:32;101728.44;;;33.59
67509;BMP280;54354;44.724;11.284;2022-07-06T10:12:58;101726.63;;;33.54
67509;BMP280;54354;44.724;11.284;2022-07-06T10:15:26;101725.16;;;33.46
67509;BMP280;54354;44.724;11.284;2022-07-06T10:17:53;101730.66;;;33.46
67509;BMP280;54354;44.724;11.284;2022-07-06T10:20:19;101724.97;;;33.51
67509;BMP280;54354;44.724;11.284;2022-07-06T10:22:48;101726.28;;;33.50
67509;BMP280;54354;44.724;11.284;2022-07-06T10:25:18;101711.22;;;33.59
67509;BMP280;54354;44.724;11.284;2022-07-06T10:27:47;101713.59;;;33.70
67509;BMP280;54354;44.724;11.284;2022-07-06T10:30:16;101716.66;;;33.74
67509;BMP280;54354;44.724;11.284;2022-07-06T10:32:44;101717.78;;;33.71
67509;BMP280;54354;44.724;11.284;2022-07-06T10:35:10;101726.97;;;33.74
67509;BMP280;54354;44.724;11.284;2022-07-06T10:37:35;101721.47;;;33.74
67509;BMP280;54354;44.724;11.284;2022-07-06T10:40:01;101711.72;;;33.80
67509;BMP280;54354;44.724;11.284;2022-07-06T10:42:48;101708.59;;;33.84
67509;BMP280;54354;44.724;11.284;2022-07-06T10:45:19;101704.19;;;33.88
67509;BMP280;54354;44.724;11.284;2022-07-06T10:50:40;101700.31;;;33.91
67509;BMP280;54354;44.724;11.284;2022-07-06T10:53:17;101700.44;;;34.01
67509;BMP280;54354;44.724;11.284;2022-07-06T10:55:45;101694.34;;;34.10
67509;BMP280;54354;44.724;11.284;2022-07-06T10:58:38;101690.50;;;34.06
67509;BMP280;54354;44.724;11.284;2022-07-06T11:01:06;101695.69;;;34.01
67509;BMP280;54354;44.724;11.284;2022-07-06T11:03:32;101696.63;;;33.96
67509;BMP280;54354;44.724;11.284;2022-07-06T11:06:04;101690.78;;;33.92
67509;BMP280;54354;44.724;11.284;2022-07-06T11:11:16;101688.94;;;33.87
67509;BMP280;54354;44.724;11.284;2022-07-06T11:13:47;101686.94;;;33.88
67509;BMP280;54354;44.724;11.284;2022-07-06T11:16:14;101677.50;;;33.74
67509;BMP280;54354;44.724;11.284;2022-07-06T11:18:47;101680.25;;;33.66
67509;BMP280;54354;44.724;11.284;2022-07-06T11:21:27;101677.19;;;33.54
67509;BMP280;54354;44.724;11.284;2022-07-06T11:23:58;101679.00;;;33.59
67509;BMP280;54354;44.724;11.284;2022-07-06T11:26:24;101682.06;;;33.63
67509;BMP280;54354;44.724;11.284;2022-07-06T11:28:51;101676.59;;;33.63
67509;BMP280;54354;44.724;11.284;2022-07-06T11:31:17;101674.22;;;33.67
67509;BMP280;54354;44.724;11.284;2022-07-06T11:33:46;101668.34;;;33.63
67509;BMP280;54354;44.724;11.284;2022-07-06T11:36:22;101665.41;;;33.69
67509;BMP280;54354;44.724;11.284;2022-07-06T11:38:49;101652.97;;;33.68
67509;BMP280;54354;44.724;11.284;2022-07-06T11:41:16;101660.47;;;33.67
67509;BMP280;54354;44.724;11.284;2022-07-06T11:43:43;101648.19;;;33.61
67509;BMP280;54354;44.724;11.284;2022-07-06T11:48:49;101639.03;;;33.66
67509;BMP280;54354;44.724;11.284;2022-07-06T11:51:15;101627.34;;;33.65
67509;BMP280;54354;44.724;11.284;2022-07-06T11:53:46;101619.66;;;33.56
67509;BMP280;54354;44.724;11.284;2022-07-06T11:56:12;101624.78;;;33.60
67509;BMP280;54354;44.724;11.284;2022-07-06T11:58:39;101619.16;;;33.50
67509;BMP280;54354;44.724;11.284;2022-07-06T12:01:09;101606.66;;;33.57
67509;BMP280;54354;44.724;11.284;2022-07-06T12:03:36;101602.59;;;33.73
67509;BMP280;54354;44.724;11.284;2022-07-06T12:06:06;101601.00;;;33.87
67509;BMP280;54354;44.724;11.284;2022-07-06T12:08:41;101595.72;;;33.82
67509;BMP280;54354;44.724;11.284;2022-07-06T12:11:07;101597.94;;;33.83
67509;BMP280;54354;44.724;11.284;2022-07-06T12:13:37;101591.94;;;33.70
67509;BMP280;54354;44.724;11.284;2022-07-06T12:16:14;101588.94;;;33.50
67509;BMP280;54354;44.724;11.284;2022-07-06T12:18:45;101590.78;;;33.40
67509;BMP280;54354;44.724;11.284;2022-07-06T12:21:19;101583.13;;;33.31
67509;BMP280;54354;44.724;11.284;2022-07-06T12:23:52;101587.63;;;33.11
67509;BMP280;54354;44.724;11.284;2022-07-06T12:26:19;101594.78;;;32.91
67509;BMP280;54354;44.724;11.284;2022-07-06T12:28:58;101603.22;;;32.78
67509;BMP280;54354;44.724;11.284;2022-07-06T12:31:37;101603.94;;;32.79
67509;BMP280;54354;44.724;11.284;2022-07-06T12:34:04;101605.59;;;32.82
67509;BMP280;54354;44.724;11.284;2022-07-06T12:36:31;101612.34;;;32.73
67509;BMP280;54354;44.724;11.284;2022-07-06T12:38:57;101610.53;;;32.76
67509;BMP280;54354;44.724;11.284;2022-07-06T12:41:31;101605.19;;;32.78
67509;BMP280;54354;44.724;11.284;2022-07-06T12:44:08;101600.81;;;32.75
67509;BMP280;54354;44.724;11.284;2022-07-06T12:46:38;101596.44;;;32.64
67509;BMP280;54354;44.724;11.284;2022-07-06T12:49:15;101592.59;;;32.59
67509;BMP280;54354;44.724;11.284;2022-07-06T12:52:14;101592.78;;;32.69
67509;BMP280;54354;44.724;11.284;2022-07-06T12:54:50;101591.69;;;32.57
67509;BMP280;54354;44.724;11.284;2022-07-06T12:57:23;101593.34;;;32.52
67509;BMP280;54354;44.724;11.284;2022-07-06T13:05:00;101590.41;;;32.66
67509;BMP280;54354;44.724;11.284;2022-07-06T13:07:26;101602.28;;;32.91
67509;BMP280;54354;44.724;11.284;2022-07-06T13:09:53;101604.06;;;33.04
67509;BMP280;54354;44.724;11.284;2022-07-06T13:12:19;101607.22;;;33.00
67509;BMP280;54354;44.724;11.284;2022-07-06T13:14:45;101609.06;;;32.90
67509;BMP280;54354;44.724;11.284;2022-07-06T13:17:11;101609.59;;;32.96
67509;BMP280;54354;44.724;11.284;2022-07-06T13:19:36;101607.53;;;33.04
67509;BMP280;54354;44.724;11.284;2022-07-06T13:22:02;101595.50;;;33.00
67509;BMP280;54354;44.724;11.284;2022-07-06T13:24:28;101594.03;;;32.91
67509;BMP280;54354;44.724;11.284;2022-07-06T13:26:54;101592.94;;;32.86
67509;BMP280;54354;44.724;11.284;2022-07-06T13:29:20;101597.88;;;32.80
67509;BMP280;54354;44.724;11.284;2022-07-06T13:31:46;101593.88;;;32.81
67509;BMP280;54354;44.724;11.284;2022-07-06T13:34:11;101580.88;;;32.97
67509;BMP280;54354;44.724;11.284;2022-07-06T13:36:38;101581.69;;;33.30
67509;BMP280;54354;44.724;11.284;2022-07-06T13:39:04;101589.53;;;33.41
67509;BMP280;54354;44.724;11.284;2022-07-06T13:41:29;101578.19;;;33.37
67509;BMP280;54354;44.724;11.284;2022-07-06T13:43:55;101575.66;;;33.31
67509;BMP280;54354;44.724;11.284;2022-07-06T13:46:21;101574.56;;;33.27
67509;BMP280;54354;44.724;11.284;2022-07-06T13:48:46;101570.19;;;33.16
67509;BMP280;54354;44.724;11.284;2022-07-06T13:51:12;101555.41;;;33.04
67509;BMP280;54354;44.724;11.284;2022-07-06T13:53:38;101552.84;;;32.98
67509;BMP280;54354;44.724;11.284;2022-07-06T13:56:04;101560.75;;;32.94
67509;BMP280;54354;44.724;11.284;2022-07-06T13:58:30;101556.00;;;32.95
67509;BMP280;54354;44.724;11.284;2022-07-06T14:00:56;101556.13;;;33.05
67509;BMP280;54354;44.724;11.284;2022-07-06T14:03:21;101551.72;;;33.09
67509;BMP280;54354;44.724;11.284;2022-07-06T14:05:53;101543.84;;;33.13
67509;BMP280;54354;44.724;11.284;2022-07-06T14:08:20;101546.25;;;33.09
67509;BMP280;54354;44.724;11.284;2022-07-06T14:10:45;101536.59;;;33.01
67509;BMP280;54354;44.724;11.284;2022-07-06T14:13:11;101533.31;;;32.94
67509;BMP280;54354;44.724;11.284;2022-07-06T14:15:36;101537.88;;;32.92
67509;BMP280;54354;44.724;11.284;2022-07-06T14:18:02;101545.00;;;32.95
67509;BMP280;54354;44.724;11.284;2022-07-06T14:20:28;101538.63;;;32.92
67509;BMP280;54354;44.724;11.284;2022-07-06T14:22:54;101541.53;;;32.94